sensor_id;sensor_type;location;lat;lon;timestamp;pressure;altitude;pressure_sealevel;temperature;humidity
9893;BME280;4985;49.092;8.542;2023-05-09T00:00:01;99568.59;;;22.12;52.89
9893;BME280;4985;49.092;8.542;2023-05-09T00:02:29;99572.31;;;22.11;52.90
9893;BME280;4985;49.092;8.542;2023-05-09T00:04:58;99561.00;;;22.08;52.90
9893;BME280;4985;49.092;8.542;2023-05-09T00:07:25;99567.78;;;22.11;52.90
9893;BME280;4985;49.092;8.542;2023-05-09T00:09:53;99559.97;;;22.10;52.90
9893;BME280;4985;49.092;8.542;2023-05-09T00:12:19;99559.72;;;22.11;52.89
9893;BME280;4985;49.092;8.542;2023-05-09T00:14:46;99554.59;;;22.10;52.90
9893;BME280;4985;49.092;8.542;2023-05-09T00:17:16;99552.72;;;22.10;52.91
9893;BME280;4985;49.092;8.542;2023-05-09T00:19:43;99549.25;;;22.10;52.89
9893;BME280;4985;49.092;8.542;2023-05-09T00:22:09;99550.28;;;22.08;52.89
9893;BME280;4985;49.092;8.542;2023-05-09T00:24:37;99540.38;;;22.09;52.89
9893;BME280;4985;49.092;8.542;2023-05-09T00:27:05;99544.69;;;22.10;52.88
9893;BME280;4985;49.092;8.542;2023-05-09T00:29:31;99540.38;;;22.09;52.89
9893;BME280;4985;49.092;8.542;2023-05-09T00:31:58;99544.94;;;22.08;52.88
9893;BME280;4985;49.092;8.542;2023-05-09T00:34:24;99548.44;;;22.09;52.88
9893;BME280;4985;49.092;8.542;2023-05-09T00:36:51;99542.25;;;22.08;52.88
9893;BME280;4985;49.092;8.542;2023-05-09T00:39:17;99547.59;;;22.08;52.88
9893;BME280;4985;49.092;8.542;2023-05-09T00:41:45;99544.09;;;22.08;52.88
9893;BME280;4985;49.092;8.542;2023-05-09T00:44:13;99540.59;;;22.07;52.88
9893;BME280;4985;49.092;8.542;2023-05-09T00:46:39;99545.13;;;22.07;52.88
9893;BME280;4985;49.092;8.542;2023-05-09T00:49:06;99544.31;;;22.06;52.87
9893;BME280;4985;49.092;8.542;2023-05-09T00:51:35;99545.13;;;22.07;52.88
9893;BME280;4985;49.092;8.542;2023-05-09T00:54:02;99540.81;;;22.06;52.88
9893;BME280;4985;49.092;8.542;2023-05-09T00:56:29;99536.28;;;22.06;52.88
9893;BME280;4985;49.092;8.542;2023-05-09T00:58:56;99536.47;;;22.05;52.89
9893;BME280;4985;49.092;8.542;2023-05-09T01:01:24;99528.44;;;22.05;52.89
9893;BME280;4985;49.092;8.542;2023-05-09T01:03:51;99534.84;;;22.04;52.89
9893;BME280;4985;49.092;8.542;2023-05-09T01:06:23;99530.31;;;22.04;52.89
9893;BME280;4985;49.092;8.542;2023-05-09T01:08:57;99537.75;;;22.02;52.90
9893;BME280;4985;49.092;8.542;2023-05-09T01:11:28;99542.06;;;22.03;52.90
9893;BME280;4985;49.092;8.542;2023-05-09T01:14:04;99540.22;;;22.04;52.91
9893;BME280;4985;49.092;8.542;2023-05-09T01:16:42;99534.03;;;22.03;52.91
9893;BME280;4985;49.092;8.542;2023-05-09T01:19:26;99521.69;;;22.02;52.91
9893;BME280;4985;49.092;8.542;2023-05-09T01:22:01;99520.06;;;22.01;52.92
9893;BME280;4985;49.092;8.542;2023-05-09T01:24:43;99512.81;;;22.02;52.93
9893;BME280;4985;49.092;8.542;2023-05-09T01:27:27;99521.69;;;22.02;52.92
9893;BME280;4985;49.092;8.542;2023-05-09T01:30:01;99508.50;;;22.01;52.91
9893;BME280;4985;49.092;8.542;2023-05-09T01:32:29;99512.25;;;22.00;52.91
9893;BME280;4985;49.092;8.542;2023-05-09T01:34:59;99511.44;;;21.99;52.93
9893;BME280;4985;49.092;8.542;2023-05-09T01:37:29;99506.06;;;21.99;52.92
9893;BME280;4985;49.092;8.542;2023-05-09T01:39:57;99500.72;;;21.99;52.93
9893;BME280;4985;49.092;8.542;2023-05-09T01:42:26;99503.38;;;21.99;52.92
9893;BME280;4985;49.092;8.542;2023-05-09T01:44:54;99502.81;;;21.97;52.92
9893;BME280;4985;49.092;8.542;2023-05-09T01:47:24;99508.97;;;21.98;52.92
9893;BME280;4985;49.092;8.542;2023-05-09T01:49:51;99513.28;;;21.99;52.92
9893;BME280;4985;49.092;8.542;2023-05-09T01:52:20;99508.97;;;21.98;52.92
9893;BME280;4985;49.092;8.542;2023-05-09T01:54:49;99502.81;;;21.97;52.94
9893;BME280;4985;49.092;8.542;2023-05-09T01:57:17;99506.50;;;21.96;52.93
9893;BME280;4985;49.092;8.542;2023-05-09T01:59:45;99502.81;;;21.97;52.93
9893;BME280;4985;49.092;8.542;2023-05-09T02:02:13;99502.81;;;21.97;52.93
9893;BME280;4985;49.092;8.542;2023-05-09T02:04:42;99504.66;;;21.97;52.93
9893;BME280;4985;49.092;8.542;2023-05-09T02:07:10;99501.16;;;21.96;52.92
9893;BME280;4985;49.092;8.542;2023-05-09T02:09:37;99501.38;;;21.95;52.94
9893;BME280;4985;49.092;8.542;2023-05-09T02:12:04;99500.56;;;21.94;52.94
9893;BME280;4985;49.092;8.542;2023-05-09T02:14:31;99497.87;;;21.94;52.95
9893;BME280;4985;49.092;8.542;2023-05-09T02:16:59;99497.06;;;21.94;52.94
9893;BME280;4985;49.092;8.542;2023-05-09T02:19:31;99491.94;;;21.92;52.95
9893;BME280;4985;49.092;8.542;2023-05-09T02:21:59;99490.91;;;21.93;52.94
9893;BME280;4985;49.092;8.542;2023-05-09T02:24:26;99490.91;;;21.93;52.94
9893;BME280;4985;49.092;8.542;2023-05-09T02:26:53;99479.59;;;21.91;52.95
9893;BME280;4985;49.092;8.542;2023-05-09T02:29:26;99490.91;;;21.93;52.95
9893;BME280;4985;49.092;8.542;2023-05-09T02:31:55;99493.81;;;21.92;52.95
9893;BME280;4985;49.092;8.542;2023-05-09T02:34:23;99489.50;;;21.91;52.96
9893;BME280;4985;49.092;8.542;2023-05-09T02:36:50;99487.66;;;21.91;52.96
9893;BME280;4985;49.092;8.542;2023-05-09T02:39:18;99482.28;;;21.91;52.96
9893;BME280;4985;49.092;8.542;2023-05-09T02:41:47;99479.59;;;21.91;52.96
9893;BME280;4985;49.092;8.542;2023-05-09T02:44:14;99480.66;;;21.90;52.96
9893;BME280;4985;49.092;8.542;2023-05-09T02:46:40;99476.91;;;21.91;52.96
9893;BME280;4985;49.092;8.542;2023-05-09T02:49:07;99477.16;;;21.90;52.96
9893;BME280;4985;49.092;8.542;2023-05-09T02:51:33;99460.75;;;21.86;52.97
9893;BME280;4985;49.092;8.542;2023-05-09T02:54:00;99468.31;;;21.89;52.97
9893;BME280;4985;49.092;8.542;2023-05-09T02:56:29;99462.94;;;21.89;52.96
9893;BME280;4985;49.092;8.542;2023-05-09T02:58:55;99474.72;;;21.88;52.96
9893;BME280;4985;49.092;8.542;2023-05-09T03:01:22;99474.72;;;21.88;52.97
9893;BME280;4985;49.092;8.542;2023-05-09T03:03:49;99467.72;;;21.87;52.97
9893;BME280;4985;49.092;8.542;2023-05-09T03:06:15;99455.97;;;21.88;52.97
9893;BME280;4985;49.092;8.542;2023-05-09T03:08:42;99455.13;;;21.88;52.95
9893;BME280;4985;49.092;8.542;2023-05-09T03:11:08;99455.97;;;21.88;52.95
9893;BME280;4985;49.092;8.542;2023-05-09T03:13:36;99462.38;;;21.87;52.94
9893;BME280;4985;49.092;8.542;2023-05-09T03:16:03;99459.69;;;21.87;52.95
9893;BME280;4985;49.092;8.542;2023-05-09T03:18:30;99462.38;;;21.87;52.95
9893;BME280;4985;49.092;8.542;2023-05-09T03:20:57;99461.56;;;21.87;52.94
9893;BME280;4985;49.092;8.542;2023-05-09T03:23:23;99452.69;;;21.86;52.95
9893;BME280;4985;49.092;8.542;2023-05-09T03:25:50;99454.53;;;21.86;52.96
9893;BME280;4985;49.092;8.542;2023-05-09T03:28:16;99445.69;;;21.85;52.96
9893;BME280;4985;49.092;8.542;2023-05-09T03:30:44;99447.78;;;21.83;52.96
9893;BME280;4985;49.092;8.542;2023-05-09T03:33:11;99455.59;;;21.85;52.97
9893;BME280;4985;49.092;8.542;2023-05-09T03:35:37;99456.41;;;21.85;52.96
9893;BME280;4985;49.092;8.542;2023-05-09T03:38:04;99452.09;;;21.84;52.97
9893;BME280;4985;49.092;8.542;2023-05-09T03:40:30;99444.03;;;21.84;52.97
9893;BME280;4985;49.092;8.542;2023-05-09T03:42:57;99440.56;;;21.84;52.98
9893;BME280;4985;49.092;8.542;2023-05-09T03:45:23;99448.59;;;21.84;52.97
9893;BME280;4985;49.092;8.542;2023-05-09T03:47:51;99447.78;;;21.83;52.96
9893;BME280;4985;49.092;8.542;2023-05-09T03:50:18;99450.47;;;21.83;52.96
9893;BME280;4985;49.092;8.542;2023-05-09T03:52:44;99449.66;;;21.83;52.96
9893;BME280;4985;49.092;8.542;2023-05-09T03:55:11;99451.50;;;21.82;52.97
9893;BME280;4985;49.092;8.542;2023-05-09T03:57:38;99451.50;;;21.82;52.97
9893;BME280;4985;49.092;8.542;2023-05-09T04:00:06;99445.34;;;21.82;52.97
9893;BME280;4985;49.092;8.542;2023-05-09T04:02:34;99449.88;;;21.81;52.98
9893;BME280;4985;49.092;8.542;2023-05-09T04:05:03;99442.91;;;21.80;52.97
9893;BME280;4985;49.092;8.542;2023-05-09T04:07:30;99439.16;;;21.81;52.99
9893;BME280;4985;49.092;8.542;2023-05-09T04:09:56;99441.25;;;21.79;52.99
9893;BME280;4985;49.092;8.542;2023-05-09T04:12:23;99437.53;;;21.80;52.98
9893;BME280;4985;49.092;8.542;2023-05-09T04:14:50;99439.41;;;21.79;52.98
9893;BME280;4985;49.092;8.542;2023-05-09T04:17:17;99433.22;;;21.79;52.98
9893;BME280;4985;49.092;8.542;2023-05-09T04:19:43;99438.59;;;21.79;52.98
9893;BME280;4985;49.092;8.542;2023-05-09T04:22:11;99435.09;;;21.78;52.99
9893;BME280;4985;49.092;8.542;2023-05-09T04:24:38;99435.09;;;21.78;52.99
9893;BME280;4985;49.092;8.542;2023-05-09T04:27:04;99439.63;;;21.78;53.00
9893;BME280;4985;49.092;8.542;2023-05-09T04:29:31;99431.59;;;21.78;53.00
9893;BME280;4985;49.092;8.542;2023-05-09T04:31:58;99434.28;;;21.78;52.98
9893;BME280;4985;49.092;8.542;2023-05-09T04:34:24;99431.59;;;21.78;52.99
9893;BME280;4985;49.092;8.542;2023-05-09T04:36:52;99435.31;;;21.77;52.98
9893;BME280;4985;49.092;8.542;2023-05-09T04:39:20;99440.69;;;21.77;52.99
9893;BME280;4985;49.092;8.542;2023-05-09T04:41:46;99438.00;;;21.77;52.99
9893;BME280;4985;49.092;8.542;2023-05-09T04:44:14;99441.75;;;21.76;53.00
9893;BME280;4985;49.092;8.542;2023-05-09T04:46:40;99440.91;;;21.75;53.01
9893;BME280;4985;49.092;8.542;2023-05-09T04:49:07;99443.59;;;21.75;53.00
9893;BME280;4985;49.092;8.542;2023-05-09T04:51:33;99435.56;;;21.75;53.01
9893;BME280;4985;49.092;8.542;2023-05-09T04:54:00;99440.09;;;21.75;53.02
9893;BME280;4985;49.092;8.542;2023-05-09T04:56:29;99439.25;;;21.74;53.03
9893;BME280;4985;49.092;8.542;2023-05-09T04:58:55;99439.25;;;21.74;53.02
9893;BME280;4985;49.092;8.542;2023-05-09T05:01:22;99436.59;;;21.74;53.03
9893;BME280;4985;49.092;8.542;2023-05-09T05:03:48;99439.50;;;21.73;53.03
9893;BME280;4985;49.092;8.542;2023-05-09T05:06:15;99435.19;;;21.72;53.04
9893;BME280;4985;49.092;8.542;2023-05-09T05:08:41;99436.00;;;21.72;53.04
9893;BME280;4985;49.092;8.542;2023-05-09T05:11:09;99435.19;;;21.72;53.05
9893;BME280;4985;49.092;8.542;2023-05-09T05:13:37;99437.87;;;21.72;53.04
9893;BME280;4985;49.092;8.542;2023-05-09T05:16:03;99439.72;;;21.71;53.04
9893;BME280;4985;49.092;8.542;2023-05-09T05:18:30;99427.16;;;21.72;53.05
9893;BME280;4985;49.092;8.542;2023-05-09T05:20:57;99435.19;;;21.72;53.04
9893;BME280;4985;49.092;8.542;2023-05-09T05:23:23;99429.84;;;21.72;53.05
9893;BME280;4985;49.092;8.542;2023-05-09T05:25:50;99425.53;;;21.71;53.05
9893;BME280;4985;49.092;8.542;2023-05-09T05:28:17;99422.03;;;21.70;53.04
9893;BME280;4985;49.092;8.542;2023-05-09T05:30:44;99432.75;;;21.70;53.05
9893;BME280;4985;49.092;8.542;2023-05-09T05:33:11;99426.56;;;21.70;53.05
9893;BME280;4985;49.092;8.542;2023-05-09T05:35:38;99422.84;;;21.71;53.04
9893;BME280;4985;49.092;8.542;2023-05-09T05:38:04;99426.56;;;21.70;53.05
9893;BME280;4985;49.092;8.542;2023-05-09T05:40:31;99419.34;;;21.70;53.04
9893;BME280;4985;49.092;8.542;2023-05-09T05:42:57;99421.22;;;21.70;53.03
9893;BME280;4985;49.092;8.542;2023-05-09T05:45:24;99421.22;;;21.70;53.04
9893;BME280;4985;49.092;8.542;2023-05-09T05:47:52;99421.22;;;21.70;53.02
9893;BME280;4985;49.092;8.542;2023-05-09T05:50:20;99418.53;;;21.70;53.01
9893;BME280;4985;49.092;8.542;2023-05-09T05:52:46;99418.53;;;21.70;53.01
9893;BME280;4985;49.092;8.542;2023-05-09T05:55:13;99418.53;;;21.70;53.03
9893;BME280;4985;49.092;8.542;2023-05-09T05:57:40;99419.59;;;21.69;53.03
9893;BME280;4985;49.092;8.542;2023-05-09T06:00:07;99410.97;;;21.67;53.02
9893;BME280;4985;49.092;8.542;2023-05-09T06:02:35;99409.91;;;21.68;53.04
9893;BME280;4985;49.092;8.542;2023-05-09T06:05:04;99415.28;;;21.68;53.05
9893;BME280;4985;49.092;8.542;2023-05-09T06:07:31;99415.28;;;21.68;53.06
9893;BME280;4985;49.092;8.542;2023-05-09T06:09:57;99411.78;;;21.67;53.07
9893;BME280;4985;49.092;8.542;2023-05-09T06:12:24;99412.59;;;21.68;53.06
9893;BME280;4985;49.092;8.542;2023-05-09T06:14:51;99415.28;;;21.68;53.07
9893;BME280;4985;49.092;8.542;2023-05-09T06:17:17;99412.59;;;21.68;53.07
9893;BME280;4985;49.092;8.542;2023-05-09T06:19:44;99404.56;;;21.68;53.06
9893;BME280;4985;49.092;8.542;2023-05-09T06:22:12;99395.47;;;21.69;53.05
9893;BME280;4985;49.092;8.542;2023-05-09T06:24:38;99394.66;;;21.68;53.05
9893;BME280;4985;49.092;8.542;2023-05-09T06:27:05;99396.53;;;21.68;53.07
9893;BME280;4985;49.092;8.542;2023-05-09T06:29:31;99390.13;;;21.69;53.06
9893;BME280;4985;49.092;8.542;2023-05-09T06:31:58;99397.34;;;21.68;53.07
9893;BME280;4985;49.092;8.542;2023-05-09T06:34:25;99390.34;;;21.67;53.09
9893;BME280;4985;49.092;8.542;2023-05-09T06:36:51;99394.91;;;21.67;53.11
9893;BME280;4985;49.092;8.542;2023-05-09T06:39:19;99389.53;;;21.67;53.13
9893;BME280;4985;49.092;8.542;2023-05-09T06:41:46;99394.09;;;21.66;53.13
9893;BME280;4985;49.092;8.542;2023-05-09T06:44:12;99392.22;;;21.67;53.16
9893;BME280;4985;49.092;8.542;2023-05-09T06:46:39;99378.81;;;21.67;53.15
9893;BME280;4985;49.092;8.542;2023-05-09T06:49:05;99389.31;;;21.68;53.13
9893;BME280;4985;49.092;8.542;2023-05-09T06:51:32;99381.50;;;21.67;53.11
9893;BME280;4985;49.092;8.542;2023-05-09T06:53:58;99377.53;;;21.69;53.10
9893;BME280;4985;49.092;8.542;2023-05-09T06:56:26;99373.22;;;21.68;53.10
9893;BME280;4985;49.092;8.542;2023-05-09T06:58:53;99368.69;;;21.69;53.09
9893;BME280;4985;49.092;8.542;2023-05-09T07:01:19;99364.94;;;21.70;53.09
9893;BME280;4985;49.092;8.542;2023-05-09T07:03:46;99366.00;;;21.69;53.09
9893;BME280;4985;49.092;8.542;2023-05-09T07:06:13;99367.63;;;21.70;53.09
9893;BME280;4985;49.092;8.542;2023-05-09T07:08:40;99367.63;;;21.70;53.08
9893;BME280;4985;49.092;8.542;2023-05-09T07:11:06;99363.09;;;21.70;53.07
9893;BME280;4985;49.092;8.542;2023-05-09T07:13:34;99362.28;;;21.70;53.07
9893;BME280;4985;49.092;8.542;2023-05-09T07:16:01;99361.22;;;21.71;53.08
9893;BME280;4985;49.092;8.542;2023-05-09T07:18:28;99361.22;;;21.71;53.07
9893;BME280;4985;49.092;8.542;2023-05-09T07:20:54;99352.38;;;21.70;53.05
9893;BME280;4985;49.092;8.542;2023-05-09T07:23:21;99352.38;;;21.70;53.05
9893;BME280;4985;49.092;8.542;2023-05-09T07:25:54;99341.66;;;21.70;53.05
9893;BME280;4985;49.092;8.542;2023-05-09T07:28:21;99339.78;;;21.71;53.05
9893;BME280;4985;49.092;8.542;2023-05-09T07:30:49;99332.56;;;21.71;53.05
9893;BME280;4985;49.092;8.542;2023-05-09T07:33:15;99343.28;;;21.71;53.06
9893;BME280;4985;49.092;8.542;2023-05-09T07:35:42;99344.34;;;21.70;53.05
9893;BME280;4985;49.092;8.542;2023-05-09T07:38:08;99336.28;;;21.70;53.06
9893;BME280;4985;49.092;8.542;2023-05-09T07:40:35;99331.75;;;21.71;53.06
9893;BME280;4985;49.092;8.542;2023-05-09T07:43:03;99330.94;;;21.70;53.07
9893;BME280;4985;49.092;8.542;2023-05-09T07:45:29;99316.72;;;21.70;53.06
9893;BME280;4985;49.092;8.542;2023-05-09T07:47:57;99317.53;;;21.70;53.06
9893;BME280;4985;49.092;8.542;2023-05-09T07:50:24;99321.84;;;21.71;53.05
9893;BME280;4985;49.092;8.542;2023-05-09T07:52:50;99306.81;;;21.70;53.08
9893;BME280;4985;49.092;8.542;2023-05-09T07:55:17;99308.69;;;21.70;53.10
9893;BME280;4985;49.092;8.542;2023-05-09T07:57:44;99297.97;;;21.70;53.10
9893;BME280;4985;49.092;8.542;2023-05-09T08:00:11;99303.34;;;21.70;53.12
9893;BME280;4985;49.092;8.542;2023-05-09T08:02:39;99306.00;;;21.70;53.15
9893;BME280;4985;49.092;8.542;2023-05-09T08:05:08;99295.53;;;21.68;53.17
9893;BME280;4985;49.092;8.542;2023-05-09T08:07:35;99299.03;;;21.69;53.21
9893;BME280;4985;49.092;8.542;2023-05-09T08:10:02;99297.16;;;21.69;53.22
9893;BME280;4985;49.092;8.542;2023-05-09T08:12:29;99274.09;;;21.68;53.24
9893;BME280;4985;49.092;8.542;2023-05-09T08:14:55;99274.09;;;21.68;53.25
9893;BME280;4985;49.092;8.542;2023-05-09T08:17:22;99272.25;;;21.69;53.26
9893;BME280;4985;49.092;8.542;2023-05-09T08:19:48;99265.00;;;21.69;53.29
9893;BME280;4985;49.092;8.542;2023-05-09T08:22:17;99264.19;;;21.69;53.29
9893;BME280;4985;49.092;8.542;2023-05-09T08:24:43;99254.06;;;21.71;53.31
9893;BME280;4985;49.092;8.542;2023-05-09T08:27:10;99250.56;;;21.70;53.32
9893;BME280;4985;49.092;8.542;2023-05-09T08:29:38;99256.75;;;21.71;53.31
9893;BME280;4985;49.092;8.542;2023-05-09T08:32:04;99247.66;;;21.72;53.31
9893;BME280;4985;49.092;8.542;2023-05-09T08:34:31;99246.03;;;21.71;53.32
9893;BME280;4985;49.092;8.542;2023-05-09T08:36:58;99245.78;;;21.72;53.31
9893;BME280;4985;49.092;8.542;2023-05-09T08:39:26;99248.47;;;21.72;53.34
9893;BME280;4985;49.092;8.542;2023-05-09T08:41:56;99247.66;;;21.72;53.37
9893;BME280;4985;49.092;8.542;2023-05-09T08:44:24;99249.28;;;21.73;53.39
9893;BME280;4985;49.092;8.542;2023-05-09T08:46:51;99254.63;;;21.73;53.42
9893;BME280;4985;49.092;8.542;2023-05-09T08:49:20;99249.28;;;21.73;53.42
9893;BME280;4985;49.092;8.542;2023-05-09T08:51:47;99245.53;;;21.74;53.44
9893;BME280;4985;49.092;8.542;2023-05-09T08:54:14;99240.19;;;21.74;53.45
9893;BME280;4985;49.092;8.542;2023-05-09T08:56:42;99236.47;;;21.75;53.44
9893;BME280;4985;49.092;8.542;2023-05-09T08:59:09;99228.44;;;21.75;53.45
9893;BME280;4985;49.092;8.542;2023-05-09T09:01:36;99225.75;;;21.75;53.46
9893;BME280;4985;49.092;8.542;2023-05-09T09:04:04;99215.03;;;21.75;53.46
9893;BME280;4985;49.092;8.542;2023-05-09T09:06:32;99213.38;;;21.74;53.46
9893;BME280;4985;49.092;8.542;2023-05-09T09:09:00;99219.09;;;21.77;53.46
9893;BME280;4985;49.092;8.542;2023-05-09T09:11:30;99215.37;;;21.78;53.45
9893;BME280;4985;49.092;8.542;2023-05-09T09:14:00;99211.06;;;21.77;53.45
9893;BME280;4985;49.092;8.542;2023-05-09T09:16:28;99214.56;;;21.78;53.45
9893;BME280;4985;49.092;8.542;2023-05-09T09:18:56;99208.97;;;21.79;53.46
9893;BME280;4985;49.092;8.542;2023-05-09T09:21:23;99207.09;;;21.80;53.46
9893;BME280;4985;49.092;8.542;2023-05-09T09:23:51;99195.56;;;21.79;53.46
9893;BME280;4985;49.092;8.542;2023-05-09T09:26:20;99196.38;;;21.80;53.46
9893;BME280;4985;49.092;8.542;2023-05-09T09:28:47;99191.00;;;21.80;53.45
9893;BME280;4985;49.092;8.542;2023-05-09T09:31:22;99194.25;;;21.82;53.44
9893;BME280;4985;49.092;8.542;2023-05-09T09:33:49;99187.84;;;21.83;53.40
9893;BME280;4985;49.092;8.542;2023-05-09T09:36:25;99180.63;;;21.84;53.36
9893;BME280;4985;49.092;8.542;2023-05-09T09:38:55;99178.75;;;21.84;53.34
9893;BME280;4985;49.092;8.542;2023-05-09T09:41:29;99169.91;;;21.84;53.36
9893;BME280;4985;49.092;8.542;2023-05-09T09:43:55;99166.16;;;21.85;53.38
9893;BME280;4985;49.092;8.542;2023-05-09T09:46:23;99163.50;;;21.85;53.42
9893;BME280;4985;49.092;8.542;2023-05-09T09:48:50;99156.88;;;21.87;53.38
9893;BME280;4985;49.092;8.542;2023-05-09T09:51:20;99163.84;;;21.88;53.35
9893;BME280;4985;49.092;8.542;2023-05-09T09:53:47;99152.06;;;21.89;53.34
9893;BME280;4985;49.092;8.542;2023-05-09T09:56:14;99152.06;;;21.89;53.33
9893;BME280;4985;49.092;8.542;2023-05-09T09:58:40;99159.06;;;21.90;53.35
9893;BME280;4985;49.092;8.542;2023-05-09T10:01:09;99148.34;;;21.90;53.37
9893;BME280;4985;49.092;8.542;2023-05-09T10:03:40;99142.97;;;21.90;53.38
9893;BME280;4985;49.092;8.542;2023-05-09T10:06:10;99137.63;;;21.90;53.38
9893;BME280;4985;49.092;8.542;2023-05-09T10:08:37;99133.88;;;21.91;53.38
9893;BME280;4985;49.092;8.542;2023-05-09T10:11:04;99129.34;;;21.92;53.35
9893;BME280;4985;49.092;8.542;2023-05-09T10:13:33;99124.78;;;21.92;53.35
9893;BME280;4985;49.092;8.542;2023-05-09T10:16:00;99115.69;;;21.93;53.33
9893;BME280;4985;49.092;8.542;2023-05-09T10:18:29;99115.69;;;21.93;53.35
9893;BME280;4985;49.092;8.542;2023-05-09T10:20:58;99108.47;;;21.94;53.37
9893;BME280;4985;49.092;8.542;2023-05-09T10:23:28;99098.81;;;21.93;53.40
9893;BME280;4985;49.092;8.542;2023-05-09T10:26:01;99098.56;;;21.94;53.42
9893;BME280;4985;49.092;8.542;2023-05-09T10:28:31;99085.66;;;21.91;53.44
9893;BME280;4985;49.092;8.542;2023-05-09T10:31:03;99089.69;;;21.94;53.46
9893;BME280;4985;49.092;8.542;2023-05-09T10:33:37;99083.28;;;21.95;53.49
9893;BME280;4985;49.092;8.542;2023-05-09T10:36:08;99084.09;;;21.95;53.49
9893;BME280;4985;49.092;8.542;2023-05-09T10:38:36;99074.78;;;21.98;53.47
9893;BME280;4985;49.092;8.542;2023-05-09T10:41:03;99077.22;;;21.99;53.46
9893;BME280;4985;49.092;8.542;2023-05-09T10:43:31;99063.81;;;21.99;53.45
9893;BME280;4985;49.092;8.542;2023-05-09T10:45:58;99061.13;;;21.99;53.48
9893;BME280;4985;49.092;8.542;2023-05-09T10:48:25;99058.22;;;22.01;53.47
9893;BME280;4985;49.092;8.542;2023-05-09T10:50:52;99048.56;;;22.00;53.48
9893;BME280;4985;49.092;8.542;2023-05-09T10:53:21;99042.63;;;21.98;53.49
9893;BME280;4985;49.092;8.542;2023-05-09T10:55:52;99052.03;;;22.00;53.51
9893;BME280;4985;49.092;8.542;2023-05-09T10:58:24;99026.06;;;22.01;53.49
9893;BME280;4985;49.092;8.542;2023-05-09T11:00:52;99033.84;;;22.02;53.49
9893;BME280;4985;49.092;8.542;2023-05-09T11:03:19;99025.81;;;22.02;53.48
9893;BME280;4985;49.092;8.542;2023-05-09T11:05:48;99029.28;;;22.03;53.47
9893;BME280;4985;49.092;8.542;2023-05-09T11:08:21;99018.09;;;22.06;53.46
9893;BME280;4985;49.092;8.542;2023-05-09T11:10:49;99023.47;;;22.06;53.45
9893;BME280;4985;49.092;8.542;2023-05-09T11:13:20;99023.47;;;22.06;53.46
9893;BME280;4985;49.092;8.542;2023-05-09T11:16:08;99011.91;;;22.05;53.48
9893;BME280;4985;49.092;8.542;2023-05-09T11:18:48;99013.56;;;22.06;53.46
9893;BME280;4985;49.092;8.542;2023-05-09T11:21:15;99003.66;;;22.07;53.47
9893;BME280;4985;49.092;8.542;2023-05-09T11:23:47;99000.97;;;22.07;53.49
9893;BME280;4985;49.092;8.542;2023-05-09T11:26:14;99001.19;;;22.05;53.50
9893;BME280;4985;49.092;8.542;2023-05-09T11:28:51;98995.81;;;22.05;53.51
9893;BME280;4985;49.092;8.542;2023-05-09T11:31:18;98998.28;;;22.07;53.53
9893;BME280;4985;49.092;8.542;2023-05-09T11:33:48;98996.41;;;22.07;53.51
9893;BME280;4985;49.092;8.542;2023-05-09T11:36:20;98988.37;;;22.07;53.50
9893;BME280;4985;49.092;8.542;2023-05-09T11:39:03;98990.03;;;22.08;53.50
9893;BME280;4985;49.092;8.542;2023-05-09T11:41:37;98983.59;;;22.10;53.48
9893;BME280;4985;49.092;8.542;2023-05-09T11:44:11;98975.31;;;22.11;53.46
9893;BME280;4985;49.092;8.542;2023-05-09T11:46:38;98973.44;;;22.12;53.46
9893;BME280;4985;49.092;8.542;2023-05-09T11:49:05;98977.19;;;22.11;53.49
9893;BME280;4985;49.092;8.542;2023-05-09T11:51:34;98968.09;;;22.12;53.48
9893;BME280;4985;49.092;8.542;2023-05-09T11:54:03;98962.72;;;22.12;53.48
9893;BME280;4985;49.092;8.542;2023-05-09T11:56:29;98956.28;;;22.13;53.50
9893;BME280;4985;49.092;8.542;2023-05-09T11:58:57;98957.34;;;22.12;53.50
9893;BME280;4985;49.092;8.542;2023-05-09T12:01:24;98957.34;;;22.12;53.50
9893;BME280;4985;49.092;8.542;2023-05-09T12:03:51;98942.91;;;22.13;53.50
9893;BME280;4985;49.092;8.542;2023-05-09T12:06:18;98934.84;;;22.13;53.49
9893;BME280;4985;49.092;8.542;2023-05-09T12:08:45;98933.78;;;22.14;53.48
9893;BME280;4985;49.092;8.542;2023-05-09T12:11:14;98931.91;;;22.14;53.48
9893;BME280;4985;49.092;8.542;2023-05-09T12:13:44;98929.25;;;22.14;53.46
9893;BME280;4985;49.092;8.542;2023-05-09T12:16:12;98936.22;;;22.15;53.45
9893;BME280;4985;49.092;8.542;2023-05-09T12:18:43;98927.37;;;22.15;53.44
9893;BME280;4985;49.092;8.542;2023-05-09T12:21:09;98915.03;;;22.14;53.43
9893;BME280;4985;49.092;8.542;2023-05-09T12:23:36;98920.13;;;22.15;53.43
9893;BME280;4985;49.092;8.542;2023-05-09T12:26:03;98916.41;;;22.16;53.42
9893;BME280;4985;49.092;8.542;2023-05-09T12:28:31;98911.03;;;22.16;53.42
9893;BME280;4985;49.092;8.542;2023-05-09T12:30:58;98897.63;;;22.16;53.44
9893;BME280;4985;49.092;8.542;2023-05-09T12:33:25;98895.75;;;22.17;53.46
9893;BME280;4985;49.092;8.542;2023-05-09T12:36:00;98881.00;;;22.14;53.45
9893;BME280;4985;49.092;8.542;2023-05-09T12:38:28;98879.69;;;22.17;53.46
9893;BME280;4985;49.092;8.542;2023-05-09T12:40:59;98880.00;;;22.20;53.45
9893;BME280;4985;49.092;8.542;2023-05-09T12:43:26;98870.91;;;22.21;53.44
9893;BME280;4985;49.092;8.542;2023-05-09T12:45:56;98871.72;;;22.22;53.42
9893;BME280;4985;49.092;8.542;2023-05-09T12:48:23;98861.81;;;22.22;53.42
9893;BME280;4985;49.092;8.542;2023-05-09T12:50:50;98858.06;;;22.23;53.41
9893;BME280;4985;49.092;8.542;2023-05-09T12:53:22;98865.84;;;22.25;53.42
9893;BME280;4985;49.092;8.542;2023-05-09T12:55:49;98860.50;;;22.25;53.43
9893;BME280;4985;49.092;8.542;2023-05-09T12:58:15;98859.44;;;22.26;53.41
9893;BME280;4985;49.092;8.542;2023-05-09T13:00:43;98856.75;;;22.26;53.39
9893;BME280;4985;49.092;8.542;2023-05-09T13:03:21;98851.38;;;22.26;53.39
9893;BME280;4985;49.092;8.542;2023-05-09T13:05:59;98850.31;;;22.27;53.38
9893;BME280;4985;49.092;8.542;2023-05-09T13:08:26;98850.31;;;22.27;53.38
9893;BME280;4985;49.092;8.542;2023-05-09T13:10:53;98843.09;;;22.27;53.39
9893;BME280;4985;49.092;8.542;2023-05-09T13:13:23;98839.09;;;22.30;53.40
9893;BME280;4985;49.092;8.542;2023-05-09T13:15:51;98824.56;;;22.26;53.39
9893;BME280;4985;49.092;8.542;2023-05-09T13:18:18;98831.03;;;22.30;53.41
9893;BME280;4985;49.092;8.542;2023-05-09T13:20:46;98824.63;;;22.31;53.44
9893;BME280;4985;49.092;8.542;2023-05-09T13:23:13;98819.25;;;22.31;53.43
9893;BME280;4985;49.092;8.542;2023-05-09T13:25:40;98822.78;;;22.31;53.45